JA4041 RJDA-RJT

Flight info

Callsign JA4041
Flight time N/A
Altitude 4500
Route RJDA/ASOAIRFIELD/C172
Aircraft C172/L-G/C

Departure

Time 2026-05-06 07:18
Airport Amakusa Airport (RJDA)

Arrival

Time N/A
Airport RJT
Time Latitude Longitude Altitude Speed Heading
2026-05-06 07:10 32.48353 130.15543 341 ft 0 kts 57°
2026-05-06 07:16 32.48350 130.15578 342 ft 10 kts 70°
2026-05-06 07:16 32.48378 130.15688 339 ft 21 kts 128°
2026-05-06 07:16 32.48277 130.15852 338 ft 28 kts 125°
2026-05-06 07:16 32.48167 130.16033 343 ft 24 kts 124°
2026-05-06 07:17 32.48080 130.16184 344 ft 19 kts 123°
2026-05-06 07:17 32.48017 130.16277 348 ft 12 kts 237°
2026-05-06 07:17 32.48065 130.16210 343 ft 16 kts 305°
2026-05-06 07:17 32.48234 130.15921 339 ft 67 kts 303°
2026-05-06 07:18 32.48543 130.15409 499 ft 78 kts 311°
2026-05-06 07:18 32.48915 130.14961 770 ft 76 kts 324°
2026-05-06 07:18 32.49424 130.14841 1001 ft 79 kts 15°
2026-05-06 07:18 32.49751 130.15364 1176 ft 89 kts 86°
2026-05-06 07:19 32.49814 130.16052 1483 ft 81 kts 82°
2026-05-06 07:19 32.49848 130.16721 1684 ft 84 kts 90°
2026-05-06 07:19 32.49854 130.17386 1893 ft 84 kts 92°
2026-05-06 07:19 32.49913 130.18062 2104 ft 83 kts 79°
2026-05-06 07:20 32.50068 130.18721 2305 ft 82 kts 70°
2026-05-06 07:20 32.50303 130.19316 2541 ft 78 kts 62°
2026-05-06 07:20 32.50587 130.19857 2731 ft 79 kts 54°
2026-05-06 07:20 32.50887 130.20398 2910 ft 79 kts 69°
2026-05-06 07:21 32.51041 130.21012 3122 ft 76 kts 73°
2026-05-06 07:21 32.51277 130.21580 3296 ft 77 kts 63°
2026-05-06 07:21 32.51529 130.22145 3474 ft 78 kts 63°
2026-05-06 07:21 32.51869 130.22683 3613 ft 84 kts 50°
2026-05-06 07:22 32.52222 130.23207 3789 ft 84 kts 52°
2026-05-06 07:22 32.52707 130.23606 3952 ft 88 kts 29°
2026-05-06 07:22 32.53052 130.24166 4105 ft 88 kts 81°
2026-05-06 07:22 32.53146 130.24892 4272 ft 89 kts 83°
2026-05-06 07:23 32.53273 130.25604 4445 ft 89 kts 71°
2026-05-06 07:23 32.53557 130.26268 4426 ft 97 kts 43°
2026-05-06 07:23 32.54199 130.26502 4460 ft 95 kts 28°
2026-05-06 07:23 32.54616 130.27069 4505 ft 91 kts 53°
2026-05-06 07:24 32.54975 130.27687 4545 ft 97 kts 62°
2026-05-06 07:24 32.55360 130.28390 4546 ft 106 kts 60°
2026-05-06 07:24 32.55778 130.29146 4541 ft 112 kts 59°
2026-05-06 07:24 32.56212 130.29926 4543 ft 115 kts 58°
2026-05-06 07:25 32.56658 130.30723 4537 ft 116 kts 59°
2026-05-06 07:25 32.57108 130.31525 4532 ft 118 kts 59°
2026-05-06 07:25 32.57562 130.32334 4534 ft 118 kts 59°
2026-05-06 07:25 32.58017 130.33144 4533 ft 118 kts 58°
2026-05-06 07:26 32.58463 130.33939 4531 ft 117 kts 59°
2026-05-06 07:26 32.58788 130.34825 4505 ft 117 kts 70°
2026-05-06 07:26 32.59195 130.35657 4501 ft 118 kts 53°
2026-05-06 07:26 32.59705 130.36414 4501 ft 117 kts 54°
2026-05-06 07:27 32.60206 130.37171 4505 ft 117 kts 56°
2026-05-06 07:27 32.60683 130.37951 4508 ft 117 kts 57°
2026-05-06 07:27 32.61141 130.38740 4511 ft 116 kts 58°
2026-05-06 07:27 32.61594 130.39535 4499 ft 116 kts 58°
2026-05-06 07:28 32.62045 130.40335 4496 ft 117 kts 58°
2026-05-06 07:28 32.62488 130.41125 4496 ft 117 kts 58°
2026-05-06 07:28 32.63388 130.42731 4501 ft 117 kts 58°
2026-05-06 07:29 32.63838 130.43536 4499 ft 117 kts 58°
2026-05-06 07:29 32.64289 130.44341 4501 ft 117 kts 58°
2026-05-06 07:29 32.64739 130.45146 4503 ft 117 kts 58°
2026-05-06 07:29 32.65189 130.45951 4496 ft 117 kts 58°
2026-05-06 07:30 32.65639 130.46756 4501 ft 117 kts 58°
2026-05-06 07:30 32.66081 130.47547 4496 ft 117 kts 59°
2026-05-06 07:30 32.66528 130.48347 4496 ft 116 kts 58°
2026-05-06 07:30 32.66972 130.49142 4499 ft 116 kts 58°
2026-05-06 07:31 32.67416 130.49937 4505 ft 116 kts 58°
2026-05-06 07:31 32.67860 130.50732 4501 ft 116 kts 58°
2026-05-06 07:31 32.68304 130.51526 4500 ft 115 kts 59°
2026-05-06 07:31 32.68744 130.52314 4497 ft 115 kts 58°
2026-05-06 07:32 32.69183 130.53102 4500 ft 114 kts 58°
2026-05-06 07:32 32.69616 130.53879 4499 ft 114 kts 58°
2026-05-06 07:32 32.70057 130.54668 4502 ft 115 kts 59°
2026-05-06 07:32 32.70498 130.55459 4499 ft 115 kts 59°
2026-05-06 07:33 32.70940 130.56252 4505 ft 115 kts 59°
2026-05-06 07:33 32.71382 130.57043 4498 ft 115 kts 58°
2026-05-06 07:33 32.71821 130.57832 4503 ft 115 kts 58°
2026-05-06 07:33 32.72256 130.58614 4498 ft 111 kts 59°
2026-05-06 07:34 32.72675 130.59366 4498 ft 107 kts 59°
2026-05-06 07:34 32.73084 130.60098 4499 ft 106 kts 58°
2026-05-06 07:34 32.73479 130.60811 4505 ft 104 kts 58°
2026-05-06 07:34 32.73875 130.61523 4499 ft 103 kts 58°
2026-05-06 07:35 32.74269 130.62228 4506 ft 102 kts 58°
2026-05-06 07:35 32.74659 130.62928 4501 ft 101 kts 58°
2026-05-06 07:35 32.75047 130.63626 4500 ft 101 kts 58°
2026-05-06 07:35 32.75435 130.64324 4505 ft 101 kts 57°
2026-05-06 07:36 32.75825 130.65024 4501 ft 102 kts 58°
2026-05-06 07:36 32.76218 130.65731 4509 ft 103 kts 58°
2026-05-06 07:36 32.76609 130.66433 4506 ft 104 kts 58°
2026-05-06 07:36 32.77007 130.67149 4511 ft 104 kts 58°
2026-05-06 07:37 32.77405 130.67866 4507 ft 104 kts 58°
2026-05-06 07:37 32.77805 130.68585 4506 ft 105 kts 58°
2026-05-06 07:37 32.78206 130.69307 4507 ft 105 kts 58°
2026-05-06 07:37 32.78607 130.70029 4510 ft 105 kts 57°
2026-05-06 07:38 32.79009 130.70753 4512 ft 105 kts 58°
2026-05-06 07:38 32.79412 130.71479 4510 ft 105 kts 58°
2026-05-06 07:38 32.79814 130.72204 4510 ft 105 kts 58°
2026-05-06 07:38 32.80218 130.72930 4510 ft 105 kts 58°
2026-05-06 07:39 32.80615 130.73646 4515 ft 106 kts 58°
2026-05-06 07:39 32.81019 130.74374 4519 ft 105 kts 58°
2026-05-06 07:39 32.81422 130.75101 4513 ft 105 kts 58°
2026-05-06 07:39 32.81827 130.75830 4512 ft 106 kts 58°
2026-05-06 07:40 32.82231 130.76560 4513 ft 106 kts 58°
2026-05-06 07:40 32.82638 130.77293 4518 ft 107 kts 58°
2026-05-06 07:40 32.83049 130.78035 4518 ft 108 kts 58°
2026-05-06 07:40 32.83462 130.78779 4519 ft 108 kts 58°
2026-05-06 07:41 32.83871 130.79518 4518 ft 108 kts 58°
2026-05-06 07:41 32.84286 130.80267 4520 ft 109 kts 58°
2026-05-06 07:41 32.84703 130.81021 4520 ft 109 kts 58°
2026-05-06 07:41 32.85121 130.81774 4520 ft 109 kts 58°
2026-05-06 07:42 32.85538 130.82528 4519 ft 110 kts 57°
2026-05-06 07:42 32.85959 130.83286 4519 ft 110 kts 57°
2026-05-06 07:42 32.86380 130.84048 4519 ft 110 kts 57°
2026-05-06 07:42 32.86801 130.84810 4520 ft 110 kts 57°
2026-05-06 07:43 32.87218 130.85564 4521 ft 110 kts 57°
2026-05-06 07:43 32.87640 130.86327 4521 ft 110 kts 57°
2026-05-06 07:43 32.88063 130.87091 4521 ft 111 kts 57°
2026-05-06 07:43 32.88485 130.87855 4521 ft 110 kts 57°
2026-05-06 07:44 32.88908 130.88618 4521 ft 111 kts 57°
2026-05-06 07:44 32.89173 130.89474 4513 ft 111 kts 81°
2026-05-06 07:44 32.89316 130.90374 4519 ft 110 kts 78°
2026-05-06 07:44 32.89496 130.91265 4519 ft 111 kts 74°
2026-05-06 07:45 32.89709 130.92128 4535 ft 109 kts 73°
2026-05-06 07:45 32.89956 130.92983 4520 ft 111 kts 70°
2026-05-06 07:45 32.90146 130.93873 4533 ft 110 kts 77°
2026-05-06 07:45 32.90313 130.94765 4510 ft 113 kts 77°
2026-05-06 07:46 32.90443 130.95691 4490 ft 114 kts 83°
2026-05-06 07:46 32.90403 130.96603 4571 ft 109 kts 100°
2026-05-06 07:46 32.90213 130.97470 4586 ft 110 kts 106°
2026-05-06 07:46 32.89983 130.98308 4689 ft 104 kts 112°
2026-05-06 07:47 32.89604 130.99025 4764 ft 101 kts 126°
2026-05-06 07:47 32.89202 130.99677 4840 ft 98 kts 122°
2026-05-06 07:47 32.88880 131.00411 4852 ft 101 kts 113°
2026-05-06 07:47 32.88586 131.01199 4834 ft 107 kts 112°
2026-05-06 07:48 32.88305 131.02002 4901 ft 103 kts 110°
2026-05-06 07:48 32.87920 131.02721 4948 ft 102 kts 123°
2026-05-06 07:48 32.87775 131.03497 4911 ft 106 kts 85°
2026-05-06 07:48 32.87863 131.04417 4504 ft 117 kts 70°
2026-05-06 07:49 32.88115 131.05317 4244 ft 109 kts 97°
2026-05-06 07:49 32.87972 131.06133 4517 ft 92 kts 78°
2026-05-06 07:49 32.88396 131.06661 4526 ft 99 kts 17°
2026-05-06 07:49 32.89110 131.06909 4331 ft 113 kts 17°
2026-05-06 07:50 32.89839 131.07251 4248 ft 110 kts 24°
2026-05-06 07:50 32.90547 131.07165 4169 ft 108 kts 330°
2026-05-06 07:50 32.91136 131.06559 3938 ft 112 kts 315°
2026-05-06 07:50 32.91826 131.06154 3628 ft 118 kts 356°
2026-05-06 07:51 32.92698 131.06025 3167 ft 128 kts
2026-05-06 07:51 32.93360 131.06683 2956 ft 115 kts 31°
2026-05-06 07:51 32.94037 131.06882 2801 ft 110 kts 358°
2026-05-06 07:51 32.94846 131.06995 2612 ft 119 kts
2026-05-06 07:52 32.95545 131.07137 3071 ft 87 kts
2026-05-06 07:52 32.96080 131.07194 3331 ft 77 kts 357°
2026-05-06 07:52 32.96627 131.07281 3484 ft 80 kts
2026-05-06 07:52 32.97167 131.07420 3619 ft 87 kts 12°
2026-05-06 07:53 32.97670 131.07813 3764 ft 95 kts 48°
2026-05-06 07:53 32.97920 131.08567 3764 ft 100 kts 75°
2026-05-06 07:53 32.97993 131.09391 3804 ft 96 kts 89°
2026-05-06 07:53 32.98186 131.10077 3828 ft 88 kts 50°
2026-05-06 07:54 32.98508 131.10680 3757 ft 91 kts 69°
2026-05-06 07:54 32.98632 131.11391 3731 ft 84 kts 78°
2026-05-06 07:54 32.98741 131.12094 3656 ft 89 kts 78°
2026-05-06 07:54 32.99053 131.12639 3645 ft 81 kts 14°
2026-05-06 07:55 32.99588 131.12578 3538 ft 84 kts 333°
2026-05-06 07:55 33.00118 131.12379 3519 ft 80 kts 358°
2026-05-06 07:55 33.00642 131.12411 3441 ft 73 kts 359°
2026-05-06 07:55 33.01012 131.12134 3307 ft 71 kts 284°
2026-05-06 07:56 33.01087 131.11550 3105 ft 72 kts 261°
2026-05-06 07:56 33.01003 131.10962 2902 ft 71 kts 257°
2026-05-06 07:56 33.00929 131.10385 2744 ft 69 kts 262°
2026-05-06 07:56 33.00884 131.09923 2728 ft 43 kts 261°
2026-05-06 07:57 33.00843 131.09706 2723 ft 13 kts 261°
2026-05-06 07:57 33.00885 131.09700 2724 ft 5 kts 28°
2026-05-06 07:57 33.00938 131.09709 2726 ft 13 kts
2026-05-06 07:57 33.01003 131.09713 2728 ft 7 kts
2026-05-06 07:58 33.01054 131.09715 2729 ft 9 kts
2026-05-06 07:58 33.01086 131.09745 2729 ft 0 kts 82°
2026-05-06 07:58 33.01091 131.09771 2731 ft 5 kts 58°
2026-05-06 07:58 33.01118 131.09804 2733 ft 9 kts 41°
2026-05-06 07:59 33.01171 131.09798 2736 ft 8 kts 299°
2026-05-06 07:59 33.01172 131.09789 2736 ft 0 kts 270°